Archival Weather

Chicago O'Hare International

Chicago, Illinois (KORD)

Report from: Wednesday, August 23, 2023 4:51 AM CDT
Current time: Monday, July 22, 2024 5:53 AM CDT

Current weather – Weather history – Daily summaries
Weather forecast

Present weatherMist
Temperature25.0°C (77.0°F)
Dew point23.9°C (75.0°F)
Winds 5 kts (2.6 m/s, 5.8 mph) Southwest (220°)
Visibility6 mi. (9.7 km)
Clouds Sky clear
Altimeter30.02 in.Hg (1017 mB)
Relative humidity94 %
Density altitude1,472 ft. (449 m)
Sea-level pressure101.6 kPa (1016 mB, 29.99 in.Hg)
Remarks Automated weather observing station with precipitation discriminator
Flight conditions Visual Meteorological Conditions
Raw dataKORD 230951Z 22005KT 6SM BR CLR 25/24 A3002 RMK AO2 SLP157 T02500239
An error has occurred. This application may no longer respond until reloaded. Reload 🗙